createdAt,value
2023-12-13T00:00:38.383Z,6.19
2023-12-13T00:05:41.548Z,6.22
2023-12-13T00:10:46.106Z,6.21
2023-12-13T00:15:49.303Z,6.22
2023-12-13T00:20:52.460Z,6.20
2023-12-13T00:25:56.962Z,6.21
2023-12-13T00:31:00.014Z,6.25
2023-12-13T00:36:03.482Z,6.21
2023-12-13T00:41:08.327Z,6.26
2023-12-13T00:46:20.812Z,6.21
2023-12-13T00:51:25.228Z,6.27
2023-12-13T00:56:31.955Z,6.27
2023-12-13T01:01:35.041Z,6.17
2023-12-13T01:06:38.417Z,6.24
2023-12-13T01:11:42.917Z,6.19
2023-12-13T01:16:46.207Z,6.37
2023-12-13T01:21:49.300Z,6.24
2023-12-13T01:26:53.763Z,6.16
2023-12-13T01:31:56.933Z,6.38
2023-12-13T01:37:00.049Z,6.47
2023-12-13T01:42:06.373Z,6.44
2023-12-13T01:47:10.813Z,6.45
2023-12-13T01:52:15.960Z,6.39
2023-12-13T01:57:21.608Z,6.40
2023-12-13T02:02:25.013Z,6.44
2023-12-13T02:07:28.974Z,6.42
2023-12-13T02:12:33.541Z,6.33
2023-12-13T02:17:36.948Z,6.43
2023-12-13T02:22:41.684Z,6.44
2023-12-13T02:27:44.905Z,6.43
2023-12-13T02:32:48.025Z,6.50
2023-12-13T02:37:52.564Z,6.32
2023-12-13T02:42:56.287Z,6.52
2023-12-13T02:48:01.121Z,6.46
2023-12-13T02:53:05.890Z,6.33
2023-12-13T02:58:08.977Z,6.35
2023-12-13T03:03:12.160Z,6.38
2023-12-13T03:08:18.519Z,6.29
2023-12-13T03:13:21.641Z,6.27
2023-12-13T03:18:25.126Z,6.32
2023-12-13T03:23:29.606Z,6.14
2023-12-13T03:28:32.919Z,6.32
2023-12-13T03:33:36.195Z,6.48
2023-12-13T03:38:40.659Z,6.63
2023-12-13T03:43:43.768Z,6.51
2023-12-13T03:48:46.929Z,6.54
2023-12-13T03:53:51.452Z,6.40
2023-12-13T03:58:54.552Z,6.54
2023-12-13T04:03:57.697Z,6.48
2023-12-13T04:09:02.213Z,6.43
2023-12-13T04:14:05.579Z,6.56
2023-12-13T04:19:08.784Z,6.36
2023-12-13T04:24:13.271Z,6.45
2023-12-13T04:29:16.412Z,6.55
2023-12-13T04:34:19.548Z,6.58
2023-12-13T04:39:24.041Z,6.52
2023-12-13T04:44:29.114Z,6.60
2023-12-13T04:49:32.520Z,6.00
2023-12-13T04:54:38.536Z,6.24
2023-12-13T04:59:41.598Z,6.45
2023-12-13T05:04:44.970Z,6.35
2023-12-13T05:09:49.568Z,6.42
2023-12-13T05:14:52.687Z,6.38
2023-12-13T05:19:56.574Z,6.31
2023-12-13T05:25:01.191Z,6.47
2023-12-13T05:30:04.672Z,6.41
2023-12-13T05:35:08.616Z,6.26
2023-12-13T05:40:14.173Z,6.37
2023-12-13T05:45:17.426Z,6.08
2023-12-13T05:50:20.594Z,6.36
2023-12-13T05:55:25.167Z,5.73
2023-12-13T06:00:28.293Z,5.96
2023-12-13T06:05:31.525Z,6.15
2023-12-13T06:10:36.840Z,6.04
2023-12-13T06:15:39.949Z,6.33
2023-12-13T06:20:43.065Z,6.55
2023-12-13T06:25:47.652Z,6.73
2023-12-13T06:30:50.808Z,6.83
2023-12-13T06:35:54.676Z,6.89
2023-12-13T06:40:59.194Z,6.83
2023-12-13T06:46:02.334Z,6.93
2023-12-13T06:51:05.753Z,6.98
2023-12-13T06:56:11.096Z,6.91
2023-12-13T07:01:14.286Z,6.98
2023-12-13T07:06:19.271Z,7.17
2023-12-13T07:11:25.461Z,7.11
2023-12-13T07:16:29.683Z,6.89
2023-12-13T07:21:32.802Z,7.01
2023-12-13T07:26:37.235Z,6.92
2023-12-13T07:31:41.635Z,6.90
2023-12-13T07:36:49.594Z,7.12
2023-12-13T07:41:54.018Z,7.16
2023-12-13T07:46:57.237Z,7.18
2023-12-13T07:52:00.357Z,7.23
2023-12-13T07:57:05.231Z,7.46
2023-12-13T08:02:08.301Z,7.47
2023-12-13T08:07:11.683Z,7.52
2023-12-13T08:12:16.226Z,7.61
2023-12-13T08:17:19.321Z,7.93
2023-12-13T08:22:22.535Z,7.78
2023-12-13T08:27:27.067Z,7.64
2023-12-13T08:32:30.855Z,7.90
2023-12-13T08:37:34.344Z,7.98
2023-12-13T08:42:42.791Z,7.83
2023-12-13T08:47:49.038Z,7.85
2023-12-13T08:52:52.768Z,8.13
2023-12-13T08:57:57.346Z,8.02
2023-12-13T09:03:00.504Z,8.14
2023-12-13T09:08:04.899Z,8.34
2023-12-13T09:13:09.442Z,8.29
2023-12-13T09:18:12.819Z,8.50
2023-12-13T09:23:22.786Z,8.43
2023-12-13T09:28:27.295Z,8.63
2023-12-13T09:33:30.497Z,8.55
2023-12-13T09:38:33.579Z,8.47
2023-12-13T09:43:41.915Z,8.19
2023-12-13T09:48:46.934Z,8.35
2023-12-13T09:53:50.898Z,8.32
2023-12-13T09:58:55.538Z,8.38
2023-12-13T10:03:58.798Z,8.64
2023-12-13T10:09:02.712Z,8.75
2023-12-13T10:14:07.151Z,8.78
2023-12-13T10:19:10.322Z,9.05
2023-12-13T10:24:13.633Z,9.03
2023-12-13T10:29:18.313Z,9.08
2023-12-13T10:34:21.521Z,9.43
2023-12-13T10:39:26.634Z,9.42
2023-12-13T10:44:35.662Z,9.38
2023-12-13T10:49:40.359Z,9.38
2023-12-13T10:54:44.088Z,9.41
2023-12-13T10:59:49.679Z,9.60
2023-12-13T11:04:53.404Z,9.60
2023-12-13T11:09:57.059Z,9.50
2023-12-13T11:15:04.862Z,9.35
2023-12-13T11:20:11.054Z,9.30
2023-12-13T11:25:14.415Z,9.26
2023-12-13T11:30:20.952Z,9.25
2023-12-13T11:35:25.080Z,9.48
2023-12-13T11:40:29.730Z,9.49
2023-12-13T11:45:34.305Z,9.29
2023-12-13T11:50:37.401Z,9.24
2023-12-13T11:55:40.542Z,9.03
2023-12-13T12:00:45.543Z,9.16
2023-12-13T12:05:49.118Z,8.95
2023-12-13T12:10:53.348Z,9.19
2023-12-13T12:15:57.889Z,9.17
2023-12-13T12:21:00.996Z,9.13
2023-12-13T12:26:08.885Z,9.19
2023-12-13T12:31:16.336Z,9.04
2023-12-13T12:36:21.008Z,8.69
2023-12-13T12:41:26.080Z,8.77
2023-12-13T12:46:30.964Z,8.76
2023-12-13T12:51:34.086Z,8.80
2023-12-13T12:56:37.945Z,8.84
2023-12-13T13:01:44.087Z,8.82
2023-12-13T13:06:47.747Z,9.08
2023-12-13T13:11:50.910Z,8.91
2023-12-13T13:16:55.472Z,8.83
2023-12-13T13:22:03.222Z,8.70
2023-12-13T13:27:18.027Z,8.62
2023-12-13T13:32:27.424Z,8.79
2023-12-13T13:37:31.186Z,8.56
2023-12-13T13:42:34.683Z,8.75
2023-12-13T13:47:39.747Z,8.74
2023-12-13T13:52:43.775Z,8.80
2023-12-13T13:57:46.894Z,8.78
2023-12-13T14:02:51.398Z,8.58
2023-12-13T14:07:55.615Z,8.67
2023-12-13T14:12:58.808Z,8.60
2023-12-13T14:18:05.860Z,8.56
2023-12-13T14:23:10.731Z,8.55
2023-12-13T14:28:13.876Z,8.54
2023-12-13T14:33:18.810Z,8.42
2023-12-13T14:38:21.997Z,8.30
2023-12-13T14:43:25.280Z,8.29
2023-12-13T14:48:29.872Z,8.10
2023-12-13T14:53:33.198Z,8.18
2023-12-13T14:58:37.225Z,8.21
2023-12-13T15:03:41.788Z,8.12
2023-12-13T15:08:44.928Z,7.87
2023-12-13T15:13:48.119Z,7.84
2023-12-13T15:18:53.392Z,7.58
2023-12-13T15:23:56.618Z,7.48
2023-12-13T15:29:00.883Z,7.33
2023-12-13T15:34:05.559Z,7.39
2023-12-13T15:39:08.751Z,7.15
2023-12-13T15:44:13.816Z,7.17
2023-12-13T15:49:18.401Z,7.06
2023-12-13T15:54:21.527Z,7.22
2023-12-13T15:59:25.496Z,7.22
2023-12-13T16:04:29.961Z,7.26
2023-12-13T16:09:34.279Z,7.17
2023-12-13T16:14:37.690Z,7.16
2023-12-13T16:19:42.263Z,7.22
2023-12-13T16:24:48.333Z,7.06
2023-12-13T16:29:52.794Z,6.84
2023-12-13T16:34:58.630Z,7.06
2023-12-13T16:40:01.795Z,7.11
2023-12-13T16:45:05.204Z,7.17
2023-12-13T16:50:11.133Z,7.15
2023-12-13T16:55:14.361Z,7.15
2023-12-13T17:00:18.345Z,7.13
2023-12-13T17:05:23.117Z,7.12
2023-12-13T17:10:29.135Z,7.05
2023-12-13T17:15:32.298Z,6.96
2023-12-13T17:20:36.817Z,6.97
2023-12-13T17:25:39.912Z,6.94
2023-12-13T17:30:43.275Z,6.98
2023-12-13T17:35:47.732Z,7.09
2023-12-13T17:40:50.865Z,6.98
2023-12-13T17:45:54.103Z,6.94
2023-12-13T17:50:58.706Z,6.96
2023-12-13T17:56:01.991Z,6.92
2023-12-13T18:01:05.555Z,6.89
2023-12-13T18:06:10.848Z,6.90
2023-12-13T18:11:14.161Z,6.72
2023-12-13T18:16:17.243Z,6.71
2023-12-13T18:21:21.781Z,6.65
2023-12-13T18:26:24.814Z,6.78
2023-12-13T18:31:27.929Z,6.70
2023-12-13T18:36:32.471Z,6.76
2023-12-13T18:41:35.663Z,6.70
2023-12-13T18:46:38.798Z,6.46
2023-12-13T18:51:43.320Z,6.52
2023-12-13T18:56:46.418Z,6.66
2023-12-13T19:01:49.615Z,6.74
2023-12-13T19:06:54.262Z,6.75
2023-12-13T19:11:57.511Z,6.59
2023-12-13T19:17:00.665Z,6.69
2023-12-13T19:22:05.571Z,6.71
2023-12-13T19:27:08.671Z,6.76
2023-12-13T19:32:11.886Z,6.58
2023-12-13T19:37:16.376Z,6.61
2023-12-13T19:42:19.736Z,6.54
2023-12-13T19:47:23.019Z,6.47
2023-12-13T19:52:27.646Z,6.47
2023-12-13T19:57:30.736Z,6.26
2023-12-13T20:02:33.867Z,5.95
2023-12-13T20:07:38.626Z,5.75
2023-12-13T20:12:41.813Z,5.85
2023-12-13T20:17:45.148Z,5.88
2023-12-13T20:22:49.651Z,5.87
2023-12-13T20:27:52.863Z,5.95
2023-12-13T20:32:56.046Z,6.02
2023-12-13T20:38:01.856Z,6.04
2023-12-13T20:43:05.195Z,5.81
2023-12-13T20:48:08.338Z,6.03
2023-12-13T20:53:12.847Z,5.32
2023-12-13T20:58:15.964Z,5.65
2023-12-13T21:03:19.094Z,5.84
2023-12-13T21:08:23.684Z,5.80
2023-12-13T21:13:26.903Z,5.78
2023-12-13T21:18:30.239Z,5.87
2023-12-13T21:23:34.881Z,5.84
2023-12-13T21:28:38.457Z,5.83
2023-12-13T21:33:41.635Z,5.93
2023-12-13T21:38:47.348Z,6.01
2023-12-13T21:43:50.612Z,6.03
2023-12-13T21:48:54.433Z,6.03
2023-12-13T21:53:59.013Z,5.93
2023-12-13T21:59:02.439Z,5.94
2023-12-13T22:04:07.404Z,5.93
2023-12-13T22:09:12.092Z,4.87
2023-12-13T22:14:15.170Z,5.50
2023-12-13T22:19:37.677Z,5.56
2023-12-13T22:24:42.546Z,5.73
2023-12-13T22:29:45.716Z,5.80
2023-12-13T22:34:49.272Z,5.80
2023-12-13T22:39:53.841Z,5.94
2023-12-13T22:44:56.984Z,5.84
2023-12-13T22:50:00.289Z,5.89
2023-12-13T22:55:05.809Z,5.87
2023-12-13T23:00:17.794Z,5.97
2023-12-13T23:05:21.292Z,5.93
2023-12-13T23:10:25.875Z,5.91
2023-12-13T23:15:29.450Z,5.91
2023-12-13T23:20:32.535Z,5.93
2023-12-13T23:25:40.484Z,5.98
2023-12-13T23:30:43.663Z,5.60
2023-12-13T23:35:46.777Z,5.83
2023-12-13T23:40:51.306Z,5.99
2023-12-13T23:45:54.455Z,5.94
2023-12-13T23:50:57.618Z,5.93
2023-12-13T23:56:02.223Z,5.88
